Date,TemperatureHighF,TemperatureAvgF,TemperatureLowF,DewpointHighF,DewpointAvgF,DewpointLowF,HumidityHigh,HumidityAvg,HumidityLow,PressureMaxIn,PressureMinIn,WindSpeedMaxMPH,WindSpeedAvgMPH,GustSpeedMaxMPH,PrecipitationSumIn
2013-5-1,55.7,39.3,33.1,40.6,35.3,31.6,92,84,52,30.45,29.91,5,1,15,0.64
2013-5-2,46.0,39.1,34.5,33.5,30.2,27.6,90,69,48,30.53,30.39,6,2,16,0.01
2013-5-3,36.6,33.8,31.5,33.8,30.0,26.0,92,83,68,30.39,30.12,6,2,16,0.17
2013-5-4,49.3,39.6,32.7,43.7,36.9,30.6,96,88,77,30.14,30.08,4,2,11,0.06
2013-5-5,61.8,48.7,38.6,51.0,43.2,36.4,92,80,65,30.15,30.05,3,1,9,0.00
2013-5-6,73.1,58.3,41.4,55.2,48.0,40.0,94,70,43,30.08,29.96,2,0,7,0.00
2013-5-7,76.6,63.0,46.4,55.9,50.4,44.6,94,65,39,30.01,29.89,2,0,7,0.00
2013-5-8,75.1,63.0,55.2,58.0,53.8,50.1,92,72,44,29.94,29.86,3,0,8,0.17
2013-5-9,59.8,54.0,44.3,56.0,50.0,32.5,93,84,61,30.04,29.88,7,2,16,0.03
2013-5-10,66.5,51.6,37.3,42.6,33.7,28.6,78,52,26,30.07,29.84,3,1,10,0.00
2013-5-11,55.8,47.5,37.8,43.3,30.0,23.8,72,50,33,30.15,29.84,8,3,26,0.01
2013-5-12,58.2,45.3,30.7,32.2,25.7,22.1,76,48,24,30.21,30.06,5,1,15,0.00
2013-5-13,74.9,56.4,36.5,51.9,38.7,26.7,72,51,36,30.08,29.61,4,1,16,0.00
2013-5-14,97.7,74.1,50.5,60.6,49.8,38.0,83,46,18,29.63,29.38,5,1,18,0.00
2013-5-15,77.0,64.5,51.8,54.8,49.0,44.1,82,57,39,29.86,29.61,4,1,12,0.03
2013-5-16,81.8,69.1,52.7,55.3,47.9,39.6,74,48,28,29.85,29.75,3,1,10,0.00
2013-5-17,68.3,57.9,54.2,57.0,52.9,39.1,94,83,34,29.91,29.81,4,1,12,0.52
2013-5-18,79.9,66.6,56.5,68.0,61.0,54.9,95,81,61,29.95,29.70,4,1,13,0.56
2013-5-19,79.3,69.0,63.9,69.3,64.9,62.2,94,85,66,29.72,29.45,5,1,15,1.00
2013-5-20,70.9,64.9,58.2,62.8,59.9,55.9,93,82,65,29.50,29.42,6,1,17,0.22
2013-5-21,65.3,58.6,51.9,58.9,55.3,50.7,93,87,70,29.63,29.43,2,0,12,0.01
2013-5-22,51.8,49.0,46.4,50.6,48.0,45.7,95,93,85,29.93,29.62,3,1,10,0.36
2013-5-23,62.9,53.0,43.7,47.1,40.3,35.0,88,63,36,30.30,29.93,5,2,13,0.00
2013-5-24,68.2,54.0,36.5,51.9,43.0,33.0,88,67,44,30.34,30.11,3,1,15,0.16
2013-5-25,58.0,54.2,52.2,52.1,49.1,44.9,89,81,72,30.20,30.15,4,1,14,0.01
2013-5-26,55.2,52.1,49.3,51.0,46.6,43.2,86,79,72,30.16,29.97,4,1,16,0.02
2013-5-27,57.7,55.0,52.8,56.0,52.6,50.2,94,89,83,29.99,29.77,3,1,14,0.04
2013-5-28,59.7,55.8,52.4,57.5,54.5,51.6,95,93,89,29.78,29.65,2,0,9,0.12
2013-5-29,75.5,63.9,51.3,70.7,61.4,50.4,96,89,79,29.75,29.57,3,0,14,0.24
2013-5-30,74.7,67.6,63.2,66.6,63.6,61.3,94,85,70,29.60,29.43,5,2,21,0.20
2013-5-31,76.7,67.3,60.2,64.6,57.7,52.8,92,71,45,29.49,29.44,7,2,22,0.25